Time;durP1;ratioP1;P1;durP2;ratioP2;P2;SDS_P1;SDS_P2;PMS_P1;PMS_P2;Temp;Humidity;BMP_temperature;BMP_pressure;BME280_temperature;BME280_humidity;BME280_pressure;Samples;Min_cycle;Max_cycle;Signal;HPM_P1;HPM_P2
2023/06/21 00:00:38;;;;;;;14.4;8.7;;;;;;;19.77;100;937.6499;;;;
2023/06/21 00:03:17;;;;;;;15.4;7.9;;;;;;;19.72;100;937.6714;;;;
2023/06/21 00:05:41;;;;;;;18.9;8.8;;;;;;;19.64;100;937.7001;;;;
2023/06/21 00:08:07;;;;;;;13.3;7.8;;;;;;;19.71;100;937.7177;;;;
2023/06/21 00:10:32;;;;;;;14.3;8.7;;;;;;;19.54;100;937.6555;;;;
2023/06/21 00:12:59;;;;;;;14.2;8.6;;;;;;;19.57;100;937.6935;;;;
2023/06/21 00:15:25;;;;;;;15;8.5;;;;;;;19.7;100;937.6655;;;;
2023/06/21 00:17:51;;;;;;;18.3;9.2;;;;;;;19.63;100;937.7084;;;;
2023/06/21 00:20:16;;;;;;;14.2;8.8;;;;;;;19.71;100;937.6894;;;;
2023/06/21 00:22:45;;;;;;;16;9;;;;;;;19.62;100;937.7383;;;;
2023/06/21 00:25:11;;;;;;;16.7;8.5;;;;;;;19.41;100;937.76;;;;
2023/06/21 00:27:39;;;;;;;16.7;9;;;;;;;19.26;100;937.6451;;;;
2023/06/21 00:30:11;;;;;;;16.1;9.5;;;;;;;19.18;100;937.651;;;;
2023/06/21 00:32:40;;;;;;;13.1;9;;;;;;;19.12;100;937.654;;;;
2023/06/21 00:35:05;;;;;;;19;9.2;;;;;;;19.34;100;937.6657;;;;
2023/06/21 00:37:44;;;;;;;15.5;8.6;;;;;;;19.35;100;937.6033;;;;
2023/06/21 00:40:10;;;;;;;15.1;8.9;;;;;;;19.32;100;937.5758;;;;
2023/06/21 00:42:33;;;;;;;12.6;9.1;;;;;;;19.35;100;937.6219;;;;
2023/06/21 00:45:25;;;;;;;16.7;8.9;;;;;;;19.37;100;937.6181;;;;
2023/06/21 00:47:52;;;;;;;15.4;8.1;;;;;;;19.45;100;937.5914;;;;
2023/06/21 00:50:23;;;;;;;13.4;8.5;;;;;;;19.48;100;937.6528;;;;
2023/06/21 00:52:50;;;;;;;14.4;8.3;;;;;;;19.22;100;937.6364;;;;
2023/06/21 00:55:19;;;;;;;15.8;8.9;;;;;;;19.09;100;937.6788;;;;
2023/06/21 00:57:41;;;;;;;19.7;9.2;;;;;;;19.21;100;937.6713;;;;
2023/06/21 01:00:12;;;;;;;14.3;8.1;;;;;;;19;100;937.688;;;;
2023/06/21 01:02:34;;;;;;;16.5;8.8;;;;;;;19.02;100;937.5787;;;;
2023/06/21 01:05:05;;;;;;;12.3;8.9;;;;;;;19.19;100;937.6022;;;;
2023/06/21 01:07:29;;;;;;;14.2;8.5;;;;;;;19.18;100;937.6752;;;;
2023/06/21 01:09:52;;;;;;;15.4;8.3;;;;;;;19.33;100;937.6877;;;;
2023/06/21 01:12:17;;;;;;;14.6;8.4;;;;;;;19.29;100;937.6541;;;;
2023/06/21 01:14:42;;;;;;;16;8.5;;;;;;;19.25;100;937.6881;;;;
2023/06/21 01:17:07;;;;;;;13.7;8.3;;;;;;;19.15;100;937.7759;;;;
2023/06/21 01:19:34;;;;;;;15.4;8.9;;;;;;;18.97;100;937.7622;;;;
2023/06/21 01:22:00;;;;;;;13.5;8.6;;;;;;;18.83;100;937.8228;;;;
2023/06/21 01:24:55;;;;;;;17.1;9;;;;;;;18.81;100;937.8908;;;;
2023/06/21 01:27:19;;;;;;;15.5;8.1;;;;;;;18.86;100;937.9059;;;;
2023/06/21 01:29:49;;;;;;;14.3;7.8;;;;;;;18.97;100;937.943;;;;
2023/06/21 01:32:13;;;;;;;10.4;7.4;;;;;;;19.02;100;938.0073;;;;
2023/06/21 01:34:38;;;;;;;15.1;8;;;;;;;19.12;100;938.043;;;;
2023/06/21 01:37:05;;;;;;;12.9;8.2;;;;;;;19.17;100;938.0361;;;;
2023/06/21 01:39:30;;;;;;;14.5;8.1;;;;;;;19.08;100;938.0578;;;;
2023/06/21 01:41:55;;;;;;;15;8.5;;;;;;;18.96;100;938.0796;;;;
2023/06/21 01:44:22;;;;;;;13.8;8.8;;;;;;;18.77;100;938.0117;;;;
2023/06/21 01:46:47;;;;;;;15.4;9;;;;;;;18.58;100;938.0817;;;;
2023/06/21 01:49:13;;;;;;;15.4;9;;;;;;;18.48;100;938.058;;;;
2023/06/21 01:51:38;;;;;;;18.2;9.3;;;;;;;18.44;100;938.1064;;;;
2023/06/21 01:54:04;;;;;;;16;8.2;;;;;;;18.66;100;938.1456;;;;
2023/06/21 01:56:29;;;;;;;18.6;9.3;;;;;;;18.74;100;938.1423;;;;
2023/06/21 01:58:56;;;;;;;13.7;8.7;;;;;;;18.43;100;938.275;;;;
2023/06/21 02:01:21;;;;;;;15.1;8.7;;;;;;;18.24;100;938.2996;;;;
2023/06/21 02:03:48;;;;;;;17.9;9.6;;;;;;;18.2;100;938.2921;;;;
2023/06/21 02:06:13;;;;;;;16.1;8.6;;;;;;;18.15;100;938.2753;;;;
2023/06/21 02:08:38;;;;;;;13.6;8.7;;;;;;;18.29;100;938.2792;;;;
2023/06/21 02:11:03;;;;;;;16.3;9.3;;;;;;;18.42;100;938.3089;;;;
2023/06/21 02:13:29;;;;;;;16.4;9.4;;;;;;;18.27;100;938.37;;;;
2023/06/21 02:15:54;;;;;;;18.4;10.1;;;;;;;18.24;100;938.4624;;;;
2023/06/21 02:18:20;;;;;;;19.5;9.5;;;;;;;18.3;100;938.4324;;;;
2023/06/21 02:20:47;;;;;;;16.9;8.8;;;;;;;18.49;100;938.4156;;;;
2023/06/21 02:23:11;;;;;;;16.3;8.9;;;;;;;18.51;100;938.4169;;;;
2023/06/21 02:25:36;;;;;;;16.2;8.8;;;;;;;18.61;100;938.4608;;;;
2023/06/21 02:28:02;;;;;;;16.4;9;;;;;;;18.59;100;938.4225;;;;
2023/06/21 02:31:01;;;;;;;13.6;8.6;;;;;;;18.48;100;938.4216;;;;
2023/06/21 02:33:27;;;;;;;12.9;8.7;;;;;;;18.17;100;938.4425;;;;
2023/06/21 02:35:52;;;;;;;16.6;9.1;;;;;;;18.16;100;938.4686;;;;
2023/06/21 02:38:20;;;;;;;17.3;8.9;;;;;;;18.13;100;938.5272;;;;
2023/06/21 02:40:45;;;;;;;14.7;8.7;;;;;;;18.25;100;938.5267;;;;
2023/06/21 02:43:10;;;;;;;14.6;8.7;;;;;;;18.06;100;938.5479;;;;
2023/06/21 02:45:36;;;;;;;19.6;9.2;;;;;;;18.04;100;938.5248;;;;
2023/06/21 02:48:01;;;;;;;18.8;9.1;;;;;;;18.01;100;938.5486;;;;
2023/06/21 02:50:27;;;;;;;16.9;9.3;;;;;;;17.85;100;938.5378;;;;
2023/06/21 02:52:52;;;;;;;18.5;9.9;;;;;;;17.68;100;938.4744;;;;
2023/06/21 02:55:22;;;;;;;17.7;10;;;;;;;17.84;100;938.455;;;;
2023/06/21 02:57:49;;;;;;;16.5;9.4;;;;;;;17.76;100;938.4433;;;;
2023/06/21 03:00:19;;;;;;;15.6;9.6;;;;;;;17.94;100;938.4724;;;;
2023/06/21 03:02:40;;;;;;;17.2;9.2;;;;;;;17.92;100;938.4881;;;;
2023/06/21 03:05:27;;;;;;;16.2;9.1;;;;;;;17.94;100;938.5078;;;;
2023/06/21 03:07:55;;;;;;;16.9;9.4;;;;;;;17.81;100;938.5737;;;;
2023/06/21 03:10:21;;;;;;;18;8.5;;;;;;;17.87;100;938.5655;;;;
2023/06/21 03:18:12;;;;;;;18.9;9;;;;;;;17.59;100;938.5936;;;;
2023/06/21 03:20:36;;;;;;;16.1;9.1;;;;;;;17.53;100;938.623;;;;
2023/06/21 03:23:02;;;;;;;16.1;9.6;;;;;;;17.52;100;938.5739;;;;
2023/06/21 03:25:28;;;;;;;19;9.6;;;;;;;17.68;100;938.5726;;;;
2023/06/21 03:27:54;;;;;;;17.6;9.4;;;;;;;17.74;100;938.6423;;;;
2023/06/21 03:30:21;;;;;;;14.9;9.1;;;;;;;17.78;100;938.5878;;;;
2023/06/21 03:32:48;;;;;;;17.2;9;;;;;;;17.88;100;938.5878;;;;
2023/06/21 03:35:11;;;;;;;12.6;8.7;;;;;;;17.91;100;938.7242;;;;
2023/06/21 03:37:39;;;;;;;14.2;8.3;;;;;;;17.8;100;938.7123;;;;
2023/06/21 03:40:07;;;;;;;14.2;8.8;;;;;;;17.93;100;938.6925;;;;
2023/06/21 03:42:58;;;;;;;19.2;9.1;;;;;;;18;100;938.6799;;;;
2023/06/21 03:45:26;;;;;;;15.6;8.8;;;;;;;17.96;100;938.7364;;;;
2023/06/21 03:47:51;;;;;;;13.5;8.7;;;;;;;18;100;938.7137;;;;
2023/06/21 03:50:21;;;;;;;15.2;8.9;;;;;;;17.94;100;938.7092;;;;
2023/06/21 03:53:54;;;;;;;16.8;9;;;;;;;17.8;100;938.6503;;;;
2023/06/21 03:56:21;;;;;;;16.5;8.9;;;;;;;17.75;100;938.7043;;;;
2023/06/21 03:58:46;;;;;;;18.1;9.3;;;;;;;17.59;100;938.663;;;;
2023/06/21 04:02:31;;;;;;;18.8;9.1;;;;;;;17.61;100;938.6417;;;;
2023/06/21 04:04:56;;;;;;;15.5;8.9;;;;;;;17.71;100;938.697;;;;
2023/06/21 04:07:23;;;;;;;18.8;8.6;;;;;;;17.72;100;938.7427;;;;
2023/06/21 04:09:48;;;;;;;16.9;9.6;;;;;;;17.68;100;938.7595;;;;
2023/06/21 04:12:16;;;;;;;14.9;8.7;;;;;;;17.71;100;938.7589;;;;
2023/06/21 04:14:41;;;;;;;16.8;8.6;;;;;;;17.75;100;938.7333;;;;
2023/06/21 04:17:09;;;;;;;16.8;8.5;;;;;;;17.82;100;938.7274;;;;
2023/06/21 04:19:35;;;;;;;16.2;8.5;;;;;;;18.01;100;938.7684;;;;
2023/06/21 04:22:01;;;;;;;15.9;8.7;;;;;;;18.02;100;938.8014;;;;
2023/06/21 04:24:26;;;;;;;15.6;8.3;;;;;;;18.08;100;938.7723;;;;
2023/06/21 04:26:55;;;;;;;14.7;8.5;;;;;;;18.1;100;938.8186;;;;
2023/06/21 04:29:18;;;;;;;15.4;8.2;;;;;;;18.22;100;938.8245;;;;
2023/06/21 04:31:45;;;;;;;15.2;7.9;;;;;;;18.43;100;938.8727;;;;
2023/06/21 04:34:10;;;;;;;14.5;8.2;;;;;;;18.56;100;938.8394;;;;
2023/06/21 04:36:35;;;;;;;14.3;8;;;;;;;18.54;99.81055;938.9672;;;;
2023/06/21 04:39:00;;;;;;;16.8;7.6;;;;;;;18.64;99.64844;938.952;;;;
2023/06/21 04:41:28;;;;;;;13.5;7.1;;;;;;;18.71;97.4873;938.9408;;;;
2023/06/21 04:43:53;;;;;;;12.2;7.2;;;;;;;18.86;97.5332;938.9484;;;;
2023/06/21 04:46:21;;;;;;;13.7;7.2;;;;;;;18.97;97.1748;938.9395;;;;
2023/06/21 04:48:44;;;;;;;14.2;7.9;;;;;;;18.81;96.41602;938.9316;;;;
2023/06/21 04:51:15;;;;;;;14.6;7.5;;;;;;;18.86;97.39355;938.9058;;;;
2023/06/21 04:53:35;;;;;;;14.9;8.1;;;;;;;18.95;97.15723;938.9305;;;;
2023/06/21 04:56:00;;;;;;;12.8;7;;;;;;;18.98;97.1416;938.882;;;;
2023/06/21 04:59:09;;;;;;;17.2;7.7;;;;;;;19.16;96.72559;938.8897;;;;
2023/06/21 05:01:46;;;;;;;10.7;7.4;;;;;;;19.26;96.59766;938.9264;;;;
2023/06/21 05:04:13;;;;;;;12.1;7.3;;;;;;;19.62;97.33984;938.9509;;;;
2023/06/21 05:06:40;;;;;;;12.1;6.6;;;;;;;20.1;93.56055;938.9792;;;;
2023/06/21 05:09:04;;;;;;;14.1;6.8;;;;;;;20.46;90.43652;938.985;;;;
2023/06/21 05:11:29;;;;;;;16.3;7.1;;;;;;;20.92;87.17578;938.949;;;;
2023/06/21 05:13:54;;;;;;;14.7;6.4;;;;;;;21.43;84.82813;938.926;;;;
2023/06/21 05:16:21;;;;;;;14.3;5.9;;;;;;;22.03;80.85156;938.9673;;;;
2023/06/21 05:18:46;;;;;;;14.6;6.7;;;;;;;22.46;79.38184;939.04;;;;
2023/06/21 05:21:12;;;;;;;15.2;6.5;;;;;;;22.54;78.23535;939.0844;;;;
2023/06/21 05:23:37;;;;;;;11.2;6;;;;;;;22.95;77.41406;939.0508;;;;
2023/06/21 05:26:03;;;;;;;10.3;5.2;;;;;;;22.97;75.17383;939.1102;;;;
2023/06/21 05:28:29;;;;;;;14.9;5.9;;;;;;;22.93;78.07813;939.0999;;;;
2023/06/21 05:30:56;;;;;;;15.1;5.8;;;;;;;23.06;78.78418;939.1462;;;;
2023/06/21 05:34:23;;;;;;;10.4;5.7;;;;;;;23.19;76.39844;939.1494;;;;
2023/06/21 05:36:43;;;;;;;9.2;5.6;;;;;;;24.18;73.75391;939.1638;;;;
2023/06/21 05:39:08;;;;;;;9.7;5.5;;;;;;;24.06;70.04785;939.2745;;;;
2023/06/21 05:41:33;;;;;;;12.2;6.2;;;;;;;23.43;72.80566;939.2994;;;;
2023/06/21 05:43:58;;;;;;;10.6;5.7;;;;;;;23.43;75.41602;939.4182;;;;
2023/06/21 05:46:23;;;;;;;15.5;5.5;;;;;;;24.69;70.38281;939.4094;;;;
2023/06/21 05:48:49;;;;;;;12.6;5.7;;;;;;;25.48;66.10059;939.4171;;;;
2023/06/21 05:51:18;;;;;;;13.2;5.5;;;;;;;26.06;63.90332;939.4553;;;;
2023/06/21 05:53:43;;;;;;;12.2;5.5;;;;;;;25.36;65.44531;939.4724;;;;
2023/06/21 05:56:08;;;;;;;13.3;5.9;;;;;;;25.55;68.68652;939.5583;;;;
2023/06/21 05:58:33;;;;;;;14.4;5.3;;;;;;;26.06;64.63672;939.5491;;;;
2023/06/21 06:00:58;;;;;;;10.4;5.3;;;;;;;26.65;61.8457;939.6121;;;;
2023/06/21 06:03:24;;;;;;;10.7;5.3;;;;;;;26.62;60.44238;939.6871;;;;
2023/06/21 06:05:49;;;;;;;14.9;5.4;;;;;;;26.45;62.33691;939.7243;;;;
2023/06/21 06:08:16;;;;;;;16.9;5.9;;;;;;;26.81;61.33398;939.7307;;;;
2023/06/21 06:10:41;;;;;;;14.1;5.6;;;;;;;26.42;61.91895;939.8064;;;;
2023/06/21 06:13:07;;;;;;;11.8;5.7;;;;;;;25.52;66.75684;939.8393;;;;
2023/06/21 06:15:32;;;;;;;13.6;5.9;;;;;;;26.77;61.60059;939.8326;;;;
2023/06/21 06:17:58;;;;;;;13.8;5.4;;;;;;;27.88;59.41309;939.8861;;;;
2023/06/21 06:20:26;;;;;;;9.6;5.5;;;;;;;28.66;55.57813;939.938;;;;
2023/06/21 06:22:51;;;;;;;17;6;;;;;;;28.71;55.00098;939.9449;;;;
2023/06/21 06:25:16;;;;;;;13.3;5.5;;;;;;;27.92;61.04492;939.8844;;;;
2023/06/21 06:27:41;;;;;;;11.3;5.8;;;;;;;28.5;53.96484;939.8617;;;;
2023/06/21 06:30:07;;;;;;;12.1;5.5;;;;;;;29.35;51.99512;939.8983;;;;
2023/06/21 06:32:33;;;;;;;12.4;5.9;;;;;;;30.25;49.55469;939.9207;;;;
2023/06/21 06:34:58;;;;;;;15.5;5.6;;;;;;;30.95;47.82715;939.9389;;;;
2023/06/21 06:37:25;;;;;;;18;5.7;;;;;;;31.14;48.25293;939.8972;;;;
2023/06/21 06:39:49;;;;;;;11.1;5.1;;;;;;;31.36;46.25488;939.9041;;;;
2023/06/21 06:42:15;;;;;;;13;5;;;;;;;32.26;45.68652;939.9534;;;;
2023/06/21 06:44:40;;;;;;;13.4;5.7;;;;;;;32.29;46.18066;939.9587;;;;
2023/06/21 06:47:05;;;;;;;13.1;5.5;;;;;;;32.51;45.72363;939.9618;;;;
2023/06/21 06:49:30;;;;;;;12.1;5.1;;;;;;;31.46;48.69434;939.8809;;;;
2023/06/21 06:51:55;;;;;;;13.3;6.3;;;;;;;31.75;46.48535;939.8773;;;;
2023/06/21 06:54:20;;;;;;;15.1;5.7;;;;;;;31.06;47.44336;939.8181;;;;
2023/06/21 06:57:13;;;;;;;11;5.7;;;;;;;31.92;46.2998;939.8574;;;;
2023/06/21 06:59:41;;;;;;;11.1;5.7;;;;;;;31.5;46.17285;939.7863;;;;
2023/06/21 07:02:06;;;;;;;16.7;6.2;;;;;;;30.72;51.20703;939.7869;;;;
2023/06/21 07:04:32;;;;;;;12.8;6.1;;;;;;;31.38;49.3916;939.7783;;;;
2023/06/21 07:06:58;;;;;;;16.4;6.2;;;;;;;30.27;51.65918;939.7918;;;;
2023/06/21 07:09:22;;;;;;;14.4;5.7;;;;;;;29.52;53.9209;939.8066;;;;
2023/06/21 07:11:47;;;;;;;12.5;5.4;;;;;;;31.33;47.25586;939.7219;;;;
2023/06/21 07:14:12;;;;;;;19;5.6;;;;;;;30.7;47.75195;939.7372;;;;
2023/06/21 07:16:39;;;;;;;10.3;5.3;;;;;;;31.28;44.62988;939.6934;;;;
2023/06/21 07:19:04;;;;;;;14;5.8;;;;;;;32.28;43.43457;939.7491;;;;
2023/06/21 07:21:29;;;;;;;16.5;6.2;;;;;;;32.28;45.00488;939.7083;;;;
2023/06/21 07:23:54;;;;;;;11.8;6.1;;;;;;;32.06;45.22266;939.6458;;;;
2023/06/21 07:26:22;;;;;;;15.5;6.1;;;;;;;31.88;46.1875;939.6211;;;;
2023/06/21 07:28:47;;;;;;;13.3;6.3;;;;;;;32.01;45.74512;939.5704;;;;
2023/06/21 07:31:13;;;;;;;15.5;6.2;;;;;;;30.65;49.92188;939.6584;;;;
2023/06/21 07:33:38;;;;;;;14.7;6.3;;;;;;;30.16;48.75781;939.6138;;;;
2023/06/21 07:36:04;;;;;;;13.8;6.3;;;;;;;30.98;47.41016;939.5848;;;;
2023/06/21 07:38:29;;;;;;;13.2;6.1;;;;;;;30.21;52.76074;939.5861;;;;
2023/06/21 07:40:54;;;;;;;13.1;5.6;;;;;;;31.27;47.70508;939.5611;;;;
2023/06/21 07:43:21;;;;;;;12.3;6;;;;;;;30.12;51.00879;939.573;;;;
2023/06/21 07:45:46;;;;;;;16.3;5.9;;;;;;;31.84;45.7998;939.5567;;;;
2023/06/21 07:48:12;;;;;;;12.6;5.7;;;;;;;31.74;46.42383;939.5361;;;;
2023/06/21 07:50:37;;;;;;;11;5.2;;;;;;;31.73;49.11816;939.5325;;;;
2023/06/21 07:53:03;;;;;;;11;5.7;;;;;;;33.57;43.60547;939.4683;;;;
2023/06/21 07:55:28;;;;;;;13.9;5.4;;;;;;;33.19;41.29785;939.3921;;;;
2023/06/21 07:57:55;;;;;;;13.3;4.8;;;;;;;31.63;46.15039;939.327;;;;
2023/06/21 08:00:20;;;;;;;12.7;5.5;;;;;;;31.1;50.4375;939.324;;;;
2023/06/21 08:02:49;;;;;;;10.4;4.9;;;;;;;31.66;46.47656;939.2553;;;;
2023/06/21 08:05:13;;;;;;;12.3;5;;;;;;;31.59;46.08594;939.2271;;;;
2023/06/21 08:07:40;;;;;;;13.1;5.2;;;;;;;31.64;46.91699;939.1467;;;;
2023/06/21 08:10:05;;;;;;;10.2;5.5;;;;;;;31.88;46.55859;939.1964;;;;
2023/06/21 08:12:31;;;;;;;11.4;5.1;;;;;;;31.55;47.86621;939.1401;;;;
2023/06/21 08:14:56;;;;;;;11.6;5.3;;;;;;;33.17;42.50977;939.1461;;;;
2023/06/21 08:17:24;;;;;;;11;4.7;;;;;;;34.21;39.89746;939.1255;;;;
2023/06/21 08:19:49;;;;;;;13.4;4.8;;;;;;;32.45;43.67773;939.1434;;;;
2023/06/21 08:22:15;;;;;;;9.4;5.1;;;;;;;32.25;45.01367;939.1316;;;;
2023/06/21 08:24:40;;;;;;;10.6;4.9;;;;;;;31.66;44.47559;939.1355;;;;
2023/06/21 08:27:05;;;;;;;13.6;5.5;;;;;;;31.53;48.23438;939.1711;;;;
2023/06/21 08:29:30;;;;;;;16.5;5.8;;;;;;;31.31;49.57617;939.1254;;;;
2023/06/21 08:31:57;;;;;;;9.6;4.8;;;;;;;30.9;48.3584;939.0695;;;;
2023/06/21 08:34:22;;;;;;;8.7;4.8;;;;;;;30.55;52.08496;939.0264;;;;
2023/06/21 08:36:47;;;;;;;11.6;5.1;;;;;;;30.79;50.31934;939.0002;;;;
2023/06/21 08:39:12;;;;;;;9.2;5.1;;;;;;;32.07;46.03906;938.9459;;;;
2023/06/21 08:41:38;;;;;;;10.5;4.9;;;;;;;32.4;46.94727;938.9346;;;;
2023/06/21 08:44:03;;;;;;;10.1;5.5;;;;;;;33.44;42.84668;938.8398;;;;
2023/06/21 08:46:29;;;;;;;10;5.4;;;;;;;33.18;42.63086;938.8045;;;;
2023/06/21 08:48:55;;;;;;;12.3;5.2;;;;;;;33.8;41.4502;938.7775;;;;
2023/06/21 08:51:20;;;;;;;7.5;4.6;;;;;;;34.24;41.53809;938.8197;;;;
2023/06/21 08:53:45;;;;;;;12.5;5.7;;;;;;;34.04;40.65332;938.8422;;;;
2023/06/21 08:56:12;;;;;;;9.2;4.9;;;;;;;33.27;42.89258;938.9135;;;;
2023/06/21 08:58:37;;;;;;;13.4;5.1;;;;;;;33.39;42.07324;938.9036;;;;
2023/06/21 09:01:03;;;;;;;13.5;5.5;;;;;;;32.72;43.53613;938.8908;;;;
2023/06/21 09:03:28;;;;;;;11.4;5.4;;;;;;;32.88;43.34766;938.9878;;;;
2023/06/21 09:05:54;;;;;;;9.6;4.8;;;;;;;32.61;45.70996;938.927;;;;
2023/06/21 09:08:20;;;;;;;9.6;4.8;;;;;;;32.97;41.99902;938.9246;;;;
2023/06/21 09:10:45;;;;;;;8.9;5;;;;;;;32.11;47.24121;938.9786;;;;
2023/06/21 09:13:10;;;;;;;10.9;5;;;;;;;32.56;45.50098;939.0773;;;;
2023/06/21 09:15:35;;;;;;;12.4;5.6;;;;;;;31.48;49.55762;939.022;;;;
2023/06/21 09:18:01;;;;;;;10.3;5.2;;;;;;;31.34;48.47852;939.0058;;;;
2023/06/21 09:20:28;;;;;;;9.4;4.7;;;;;;;31.94;45.9541;939.0457;;;;
2023/06/21 09:22:53;;;;;;;11.1;5.6;;;;;;;32.03;47.14941;939.1114;;;;
2023/06/21 09:25:19;;;;;;;12.3;4.8;;;;;;;32.29;44.95703;939.0441;;;;
2023/06/21 09:27:45;;;;;;;9.5;5;;;;;;;32.61;44.92871;939.0914;;;;
2023/06/21 09:30:11;;;;;;;10.6;5;;;;;;;31.67;47.69922;939.1139;;;;
2023/06/21 09:32:37;;;;;;;10.7;4.8;;;;;;;32.03;47.0293;939.1333;;;;
2023/06/21 09:35:02;;;;;;;12;4.9;;;;;;;31.48;46.43457;939.233;;;;
2023/06/21 09:37:29;;;;;;;10.2;5.2;;;;;;;31.31;46.17676;939.2288;;;;
2023/06/21 09:39:54;;;;;;;15.1;5.3;;;;;;;30.6;50.78906;939.2301;;;;
2023/06/21 09:42:19;;;;;;;14.2;5.1;;;;;;;30.59;49.20996;939.1446;;;;
2023/06/21 09:44:45;;;;;;;9.7;5;;;;;;;30.56;48.5498;939.1792;;;;
2023/06/21 09:47:09;;;;;;;13.9;5.4;;;;;;;30.76;51.42773;939.2316;;;;
2023/06/21 09:49:36;;;;;;;9;4.7;;;;;;;31;49.98438;939.2112;;;;
2023/06/21 09:52:01;;;;;;;9;4.6;;;;;;;31.12;50.5957;939.2195;;;;
2023/06/21 09:54:26;;;;;;;11.3;5.1;;;;;;;30.94;50.6709;939.2161;;;;
2023/06/21 09:56:51;;;;;;;8.1;5.2;;;;;;;30.88;50.74902;939.2209;;;;
2023/06/21 09:59:17;;;;;;;8.1;4.8;;;;;;;30.22;50.9248;939.1895;;;;
2023/06/21 10:01:44;;;;;;;10.3;5.1;;;;;;;30.55;51.54785;939.2325;;;;
2023/06/21 10:04:10;;;;;;;10.3;5.4;;;;;;;31;49.03906;939.2221;;;;
2023/06/21 10:06:35;;;;;;;9.2;4.8;;;;;;;30.78;50.7959;939.2355;;;;
2023/06/21 10:09:00;;;;;;;10.2;4.6;;;;;;;30.98;51.52441;939.241;;;;
2023/06/21 10:11:26;;;;;;;9.7;5.5;;;;;;;31.23;49.41016;939.3214;;;;
2023/06/21 10:13:51;;;;;;;13.1;5.5;;;;;;;30.93;49.35449;939.282;;;;
2023/06/21 10:16:19;;;;;;;12.6;5.1;;;;;;;31.19;48.1748;939.2999;;;;
2023/06/21 10:18:42;;;;;;;8.9;4.5;;;;;;;31.25;47.43945;939.3929;;;;
2023/06/21 10:21:07;;;;;;;12.4;5;;;;;;;30.77;47.97461;939.345;;;;
2023/06/21 10:23:34;;;;;;;13.5;4.9;;;;;;;30.73;49.77539;939.361;;;;
2023/06/21 10:25:57;;;;;;;10.1;5;;;;;;;30.31;49.60938;939.3625;;;;
2023/06/21 10:28:22;;;;;;;8;4.6;;;;;;;30.59;49.44922;939.3936;;;;
2023/06/21 10:30:47;;;;;;;16.3;4.8;;;;;;;30.65;50.04102;939.3592;;;;
2023/06/21 10:33:12;;;;;;;9.3;5.7;;;;;;;30.68;48.63379;939.3005;;;;
2023/06/21 10:35:38;;;;;;;10.6;4.9;;;;;;;30.23;50.41211;939.3791;;;;
2023/06/21 10:38:06;;;;;;;12.9;5.5;;;;;;;30.45;50.83105;939.3883;;;;
2023/06/21 10:40:32;;;;;;;9.8;5.4;;;;;;;30.26;52.89844;939.4369;;;;
2023/06/21 10:42:58;;;;;;;10.8;5.7;;;;;;;30.67;49.49316;939.4752;;;;
2023/06/21 10:45:28;;;;;;;14.1;5.2;;;;;;;30.48;52.24414;939.5178;;;;
2023/06/21 10:47:52;;;;;;;14.5;5.4;;;;;;;30.61;49.22363;939.6057;;;;
2023/06/21 10:50:20;;;;;;;11.3;5.2;;;;;;;30.4;52.80762;939.6297;;;;
2023/06/21 10:52:45;;;;;;;16.7;5.5;;;;;;;30.18;52.24414;939.707;;;;
2023/06/21 10:55:14;;;;;;;8.7;4.7;;;;;;;30.41;49.45313;939.5823;;;;
2023/06/21 10:57:38;;;;;;;11.2;5.6;;;;;;;29.94;50.94043;939.6049;;;;
2023/06/21 11:00:04;;;;;;;13.5;5.3;;;;;;;29.68;51.54297;939.6197;;;;
2023/06/21 11:02:30;;;;;;;11.2;5.3;;;;;;;29.61;54.71875;939.7581;;;;
2023/06/21 11:04:55;;;;;;;11.5;5.7;;;;;;;30.16;50.40527;939.8106;;;;
2023/06/21 11:07:20;;;;;;;10.5;5.4;;;;;;;30.54;50.56543;939.7047;;;;
2023/06/21 11:09:45;;;;;;;10.1;5.5;;;;;;;30.85;48.52148;939.7009;;;;
2023/06/21 11:12:12;;;;;;;14.4;5.6;;;;;;;30.48;51.06152;939.7061;;;;
2023/06/21 11:14:36;;;;;;;9.8;5.7;;;;;;;30.73;49.71582;939.7839;;;;
2023/06/21 11:17:04;;;;;;;10.1;5;;;;;;;30.74;48.63965;939.7586;;;;
2023/06/21 11:19:27;;;;;;;11.7;6.6;;;;;;;30.19;51.24512;939.8605;;;;
2023/06/21 11:21:54;;;;;;;9.7;5;;;;;;;30.2;51.35254;939.8356;;;;
2023/06/21 11:24:19;;;;;;;11.2;5.6;;;;;;;30.43;53.21777;939.8823;;;;
2023/06/21 11:26:48;;;;;;;12.2;5.5;;;;;;;30.24;51.05859;939.8427;;;;
2023/06/21 11:29:09;;;;;;;11.8;5.3;;;;;;;30.4;51.51758;939.8546;;;;
2023/06/21 11:31:34;;;;;;;12.2;6;;;;;;;30.79;50.2959;939.9357;;;;
2023/06/21 11:34:03;;;;;;;10.3;5.6;;;;;;;30.97;48.61621;939.8323;;;;
2023/06/21 11:36:26;;;;;;;12.1;5.9;;;;;;;31.41;48.31836;939.8123;;;;
2023/06/21 11:38:52;;;;;;;12.3;5.6;;;;;;;31.16;49.82227;939.7693;;;;
2023/06/21 11:41:18;;;;;;;10.5;5.5;;;;;;;31.2;49.27637;939.7484;;;;
2023/06/21 11:43:43;;;;;;;10;5.2;;;;;;;31.54;48.27246;939.7033;;;;
2023/06/21 11:46:08;;;;;;;12.7;5.9;;;;;;;31.58;52.5498;939.7525;;;;
2023/06/21 11:48:34;;;;;;;11.6;5.6;;;;;;;31.36;48.34863;939.7576;;;;
2023/06/21 11:50:59;;;;;;;11;5.3;;;;;;;31.73;47.6084;939.7159;;;;
2023/06/21 11:53:26;;;;;;;9.2;5.5;;;;;;;31.94;47.33203;939.7014;;;;
2023/06/21 11:55:49;;;;;;;8.2;5.2;;;;;;;31.65;47.87598;939.7271;;;;
2023/06/21 11:58:14;;;;;;;8.7;5.4;;;;;;;31.48;48.26563;939.7072;;;;
2023/06/21 12:00:41;;;;;;;11.5;4.7;;;;;;;31.38;48.04004;939.8259;;;;
2023/06/21 12:03:08;;;;;;;11.8;5.1;;;;;;;30.84;49.09277;939.7438;;;;
2023/06/21 12:05:33;;;;;;;10.8;4.6;;;;;;;30.43;49.45508;939.7614;;;;
2023/06/21 12:07:59;;;;;;;8.9;4.6;;;;;;;30.53;48.37891;939.7495;;;;
2023/06/21 12:10:24;;;;;;;9;5;;;;;;;30.7;48.56543;939.738;;;;
2023/06/21 12:12:51;;;;;;;11.2;4.8;;;;;;;31.04;47.93164;939.7653;;;;
2023/06/21 12:15:16;;;;;;;12.1;4.8;;;;;;;30.79;49.44727;939.8058;;;;
2023/06/21 12:17:42;;;;;;;11.8;4.4;;;;;;;30.71;48.07617;939.7938;;;;
2023/06/21 12:20:08;;;;;;;10.1;4.5;;;;;;;30.7;49.37695;939.7629;;;;
2023/06/21 12:22:34;;;;;;;9.9;4.5;;;;;;;30.31;51.35254;939.8079;;;;
2023/06/21 12:24:59;;;;;;;9.6;4.7;;;;;;;30.51;48.63965;939.8329;;;;
2023/06/21 12:27:25;;;;;;;11.6;5.6;;;;;;;30.91;47.5;939.7811;;;;
2023/06/21 12:29:50;;;;;;;11;5;;;;;;;30.67;47.6416;939.782;;;;
2023/06/21 12:32:18;;;;;;;8.5;4.6;;;;;;;30.38;48.12402;939.7927;;;;
2023/06/21 12:34:43;;;;;;;9.6;4.6;;;;;;;30.23;48.53809;939.757;;;;
2023/06/21 12:37:08;;;;;;;9.3;4.4;;;;;;;30.1;50.19434;939.7764;;;;
2023/06/21 12:39:33;;;;;;;11.8;4.9;;;;;;;30.1;49.37207;939.7678;;;;
2023/06/21 12:41:58;;;;;;;9.8;4.2;;;;;;;29.77;50.65918;939.7899;;;;
2023/06/21 12:44:26;;;;;;;10.1;5;;;;;;;29.19;52.38086;939.7636;;;;
2023/06/21 12:46:50;;;;;;;10.5;4.7;;;;;;;29.06;54.31836;939.759;;;;
2023/06/21 12:49:17;;;;;;;10.6;4.8;;;;;;;28.94;54.37598;939.7455;;;;
2023/06/21 12:51:42;;;;;;;13.2;5.1;;;;;;;28.67;54.9248;939.7559;;;;
2023/06/21 12:54:08;;;;;;;14.7;4.7;;;;;;;29.11;55.51367;939.7704;;;;
2023/06/21 12:56:33;;;;;;;10.9;4.4;;;;;;;29.35;54.55664;939.7834;;;;
2023/06/21 12:58:58;;;;;;;10.3;4.8;;;;;;;29.79;52.35547;939.6987;;;;
2023/06/21 13:01:23;;;;;;;12.3;4.8;;;;;;;29.68;51.51953;939.6633;;;;
2023/06/21 13:03:48;;;;;;;12.8;4.6;;;;;;;29.67;52.45996;939.5848;;;;
2023/06/21 13:06:15;;;;;;;15.2;5.4;;;;;;;29.68;54.10742;939.5915;;;;
2023/06/21 13:08:40;;;;;;;10.5;5;;;;;;;29.69;50.54199;939.5327;;;;
2023/06/21 13:11:08;;;;;;;13.4;4.9;;;;;;;29.9;50.375;939.5453;;;;
2023/06/21 13:13:32;;;;;;;12.3;5.5;;;;;;;29.37;54.00977;939.5036;;;;
2023/06/21 13:15:58;;;;;;;13.6;5.1;;;;;;;29.5;51.58203;939.4553;;;;
2023/06/21 13:18:23;;;;;;;10.6;4.5;;;;;;;29.66;52.35156;939.4847;;;;
2023/06/21 13:20:50;;;;;;;10.5;4.8;;;;;;;29.68;50.81641;939.4782;;;;
2023/06/21 13:23:15;;;;;;;22.8;5.8;;;;;;;29.55;51.36133;939.4849;;;;
2023/06/21 13:25:41;;;;;;;12.1;5.2;;;;;;;29.64;52.5166;939.507;;;;
2023/06/21 13:28:06;;;;;;;10.8;5.4;;;;;;;29.89;49.70703;939.6058;;;;
2023/06/21 13:30:34;;;;;;;22;5.8;;;;;;;29.68;52.49805;939.603;;;;
2023/06/21 13:32:59;;;;;;;11.5;5.2;;;;;;;29.81;51.16504;939.6583;;;;
2023/06/21 13:35:27;;;;;;;9.2;5.1;;;;;;;29.86;50.69434;939.6144;;;;
2023/06/21 13:37:52;;;;;;;7.3;4.7;;;;;;;29.73;50.52344;939.5646;;;;
2023/06/21 13:40:21;;;;;;;11.5;5.3;;;;;;;30.14;50.84473;939.6584;;;;
2023/06/21 13:42:46;;;;;;;7.8;4.5;;;;;;;30.39;49.6416;939.6342;;;;
2023/06/21 13:45:13;;;;;;;10.5;5.1;;;;;;;30.59;49.11523;939.677;;;;
2023/06/21 13:47:39;;;;;;;9.6;4.7;;;;;;;30.82;49.13867;939.61;;;;
2023/06/21 13:50:08;;;;;;;9.8;5.3;;;;;;;30.82;47.56152;939.4692;;;;
2023/06/21 13:52:33;;;;;;;9.2;4.7;;;;;;;30.08;50.38281;939.528;;;;
2023/06/21 13:55:00;;;;;;;10.1;4.6;;;;;;;29.92;50.58105;939.4416;;;;
2023/06/21 13:57:25;;;;;;;9.7;4.7;;;;;;;29.64;52.33789;939.4745;;;;
2023/06/21 13:59:54;;;;;;;14.1;5;;;;;;;29.85;52.52832;939.4103;;;;
2023/06/21 14:02:19;;;;;;;9.9;4.5;;;;;;;29.51;51.91797;939.4533;;;;
2023/06/21 14:04:48;;;;;;;14.9;5.2;;;;;;;29.28;54.17773;939.4606;;;;
2023/06/21 14:07:14;;;;;;;13.6;4.7;;;;;;;29.56;52.05371;939.3539;;;;
2023/06/21 14:09:39;;;;;;;11.6;4.7;;;;;;;29.36;53.91406;939.2767;;;;
2023/06/21 14:12:06;;;;;;;13;5;;;;;;;29.44;51.93262;939.1453;;;;
2023/06/21 14:14:31;;;;;;;11.8;5.1;;;;;;;29.22;53.02832;939.2144;;;;
2023/06/21 14:16:58;;;;;;;10.6;4.8;;;;;;;28.94;53.80469;939.3217;;;;
2023/06/21 14:19:23;;;;;;;8;5;;;;;;;28.54;54.21973;939.4309;;;;
2023/06/21 14:21:49;;;;;;;14.7;5.4;;;;;;;28.37;55.0791;939.6655;;;;
2023/06/21 14:24:14;;;;;;;13.9;5.4;;;;;;;27.96;55.87305;939.7951;;;;
2023/06/21 14:26:39;;;;;;;11.6;5.5;;;;;;;27.79;56.46875;939.7978;;;;
2023/06/21 14:29:04;;;;;;;11.7;5.6;;;;;;;27.66;56.6416;939.8351;;;;
2023/06/21 14:31:33;;;;;;;12.1;5.6;;;;;;;27.56;56.58203;939.7796;;;;
2023/06/21 14:33:58;;;;;;;8.8;5;;;;;;;27.66;56.48828;939.8497;;;;
2023/06/21 14:36:25;;;;;;;14.3;5.6;;;;;;;27.67;57.61719;939.8212;;;;
2023/06/21 14:38:50;;;;;;;10.7;5.1;;;;;;;27.61;56.91992;939.8416;;;;